createdAt,value
2023-05-11T00:00:31.426Z,21.18
2023-05-11T00:02:57.826Z,21.18
2023-05-11T00:05:24.200Z,21.17
2023-05-11T00:07:50.657Z,21.17
2023-05-11T00:10:17.234Z,21.16
2023-05-11T00:12:43.702Z,21.16
2023-05-11T00:15:10.124Z,21.16
2023-05-11T00:17:36.527Z,21.16
2023-05-11T00:20:03.281Z,21.16
2023-05-11T00:22:29.863Z,21.16
2023-05-11T00:24:56.207Z,21.15
2023-05-11T00:27:22.570Z,21.14
2023-05-11T00:29:48.903Z,21.12
2023-05-11T00:32:15.384Z,21.13
2023-05-11T00:34:42.030Z,21.15
2023-05-11T00:37:08.620Z,21.13
2023-05-11T00:39:40.139Z,21.14
2023-05-11T00:42:06.492Z,21.12
2023-05-11T00:44:33.443Z,21.13
2023-05-11T00:47:00.181Z,21.12
2023-05-11T00:49:26.868Z,21.12
2023-05-11T00:51:53.345Z,21.12
2023-05-11T00:54:19.727Z,21.12
2023-05-11T00:56:46.386Z,21.11
2023-05-11T00:59:14.040Z,21.13
2023-05-11T01:01:40.552Z,21.11
2023-05-11T01:04:06.911Z,21.11
2023-05-11T01:06:44.676Z,21.11
2023-05-11T01:09:18.500Z,21.11
2023-05-11T01:11:49.405Z,21.10
2023-05-11T01:14:21.051Z,21.10
2023-05-11T01:16:48.449Z,21.09
2023-05-11T01:19:23.132Z,21.09
2023-05-11T01:21:49.478Z,21.10
2023-05-11T01:24:15.759Z,21.08
2023-05-11T01:27:00.638Z,21.07
2023-05-11T01:29:33.983Z,21.08
2023-05-11T01:32:00.451Z,21.08
2023-05-11T01:34:28.519Z,21.07
2023-05-11T01:36:56.000Z,21.07
2023-05-11T01:39:24.149Z,21.07
2023-05-11T01:41:51.506Z,21.07
2023-05-11T01:44:18.070Z,21.07
2023-05-11T01:46:44.428Z,21.07
2023-05-11T01:49:10.795Z,21.06
2023-05-11T01:51:37.550Z,21.06
2023-05-11T01:54:06.968Z,21.06
2023-05-11T01:56:33.626Z,21.06
2023-05-11T01:58:59.965Z,21.05
2023-05-11T02:01:26.794Z,21.05
2023-05-11T02:03:53.196Z,21.04
2023-05-11T02:06:19.766Z,21.04
2023-05-11T02:08:46.134Z,21.04
2023-05-11T02:11:12.455Z,21.04
2023-05-11T02:13:39.204Z,21.03
2023-05-11T02:16:05.800Z,21.03
2023-05-11T02:18:32.257Z,21.03
2023-05-11T02:21:00.081Z,21.02
2023-05-11T02:23:27.639Z,21.01
2023-05-11T02:25:54.462Z,21.01
2023-05-11T02:28:21.083Z,21.01
2023-05-11T02:30:48.511Z,21.01
2023-05-11T02:33:18.224Z,21.01
2023-05-11T02:35:44.728Z,21.00
2023-05-11T02:38:11.272Z,20.99
2023-05-11T02:40:39.842Z,21.00
2023-05-11T02:43:10.680Z,20.99
2023-05-11T02:45:42.973Z,20.99
2023-05-11T02:48:10.169Z,20.98
2023-05-11T02:50:37.407Z,20.98
2023-05-11T02:53:06.548Z,20.97
2023-05-11T02:55:33.306Z,20.98
2023-05-11T02:57:59.699Z,20.97
2023-05-11T03:00:26.395Z,20.98
2023-05-11T03:02:52.960Z,20.96
2023-05-11T03:05:21.082Z,20.96
2023-05-11T03:07:47.521Z,20.96
2023-05-11T03:10:13.854Z,20.96
2023-05-11T03:12:43.318Z,20.96
2023-05-11T03:15:12.021Z,20.95
2023-05-11T03:17:40.024Z,20.95
2023-05-11T03:20:07.592Z,20.95
2023-05-11T03:22:34.354Z,20.92
2023-05-11T03:25:00.776Z,20.93
2023-05-11T03:27:27.241Z,20.95
2023-05-11T03:29:53.615Z,20.93
2023-05-11T03:32:20.023Z,20.93
2023-05-11T03:34:46.775Z,20.83
2023-05-11T03:37:15.638Z,20.80
2023-05-11T03:39:42.718Z,20.77
2023-05-11T03:42:09.684Z,20.76
2023-05-11T03:44:36.250Z,20.76
2023-05-11T03:47:03.799Z,20.75
2023-05-11T03:49:30.180Z,20.75
2023-05-11T03:51:56.725Z,20.73
2023-05-11T03:54:26.106Z,20.72
2023-05-11T03:56:52.894Z,20.74
2023-05-11T03:59:19.223Z,20.72
2023-05-11T04:01:45.575Z,20.71
2023-05-11T04:04:12.150Z,20.71
2023-05-11T04:06:38.589Z,20.70
2023-05-11T04:09:10.136Z,20.70
2023-05-11T04:11:37.085Z,20.71
2023-05-11T04:14:03.443Z,20.70
2023-05-11T04:16:29.900Z,20.70
2023-05-11T04:18:56.342Z,20.70
2023-05-11T04:21:22.747Z,20.70
2023-05-11T04:23:49.097Z,20.70
2023-05-11T04:26:15.435Z,20.70
2023-05-11T04:28:43.508Z,20.71
2023-05-11T04:31:10.481Z,20.72
2023-05-11T04:33:37.273Z,20.71
2023-05-11T04:36:03.902Z,20.71
2023-05-11T04:38:30.850Z,20.70
2023-05-11T04:40:57.189Z,20.71
2023-05-11T04:43:23.853Z,20.69
2023-05-11T04:45:50.330Z,20.69
2023-05-11T04:48:21.627Z,20.68
2023-05-11T04:50:48.229Z,20.68
2023-05-11T04:53:16.525Z,20.69
2023-05-11T04:55:43.305Z,20.70
2023-05-11T04:58:10.642Z,20.70
2023-05-11T05:00:37.022Z,20.70
2023-05-11T05:03:03.472Z,20.72
2023-05-11T05:05:29.901Z,20.72
2023-05-11T05:07:56.218Z,20.75
2023-05-11T05:10:22.580Z,20.75
2023-05-11T05:12:48.945Z,20.77
2023-05-11T05:15:15.296Z,20.90
2023-05-11T05:17:41.660Z,20.79
2023-05-11T05:20:08.177Z,20.76
2023-05-11T05:22:34.960Z,20.74
2023-05-11T05:25:02.293Z,20.74
2023-05-11T05:27:28.989Z,20.73
2023-05-11T05:29:56.567Z,20.74
2023-05-11T05:32:24.994Z,20.74
2023-05-11T05:34:51.435Z,20.75
2023-05-11T05:37:17.996Z,20.74
2023-05-11T05:39:46.514Z,20.70
2023-05-11T05:42:14.635Z,20.77
2023-05-11T05:44:41.175Z,20.75
2023-05-11T05:47:07.793Z,20.40
2023-05-11T05:49:36.108Z,20.08
2023-05-11T05:52:03.944Z,20.11
2023-05-11T05:54:30.366Z,20.20
2023-05-11T05:56:57.169Z,20.40
2023-05-11T05:59:24.363Z,20.46
2023-05-11T06:01:54.934Z,20.49
2023-05-11T06:04:22.788Z,20.60
2023-05-11T06:06:49.159Z,21.01
2023-05-11T06:09:15.630Z,21.18
2023-05-11T06:11:41.989Z,21.19
2023-05-11T06:14:08.886Z,21.19
2023-05-11T06:16:35.308Z,21.28
2023-05-11T06:19:01.839Z,21.39
2023-05-11T06:21:29.002Z,21.50
2023-05-11T06:23:55.455Z,21.71
2023-05-11T06:26:25.022Z,21.72
2023-05-11T06:28:52.680Z,21.66
2023-05-11T06:31:19.201Z,21.70
2023-05-11T06:33:46.763Z,21.57
2023-05-11T06:36:20.776Z,21.61
2023-05-11T06:38:47.121Z,21.64
2023-05-11T06:41:13.496Z,21.63
2023-05-11T06:43:39.828Z,21.66
2023-05-11T06:46:17.997Z,21.58
2023-05-11T06:48:44.482Z,21.58
2023-05-11T06:51:11.591Z,21.92
2023-05-11T06:53:38.208Z,22.15
2023-05-11T06:56:04.600Z,22.18
2023-05-11T06:58:31.375Z,22.22
2023-05-11T07:00:58.009Z,22.33
2023-05-11T07:03:24.446Z,22.41
2023-05-11T07:05:50.793Z,22.44
2023-05-11T07:08:17.154Z,22.43
2023-05-11T07:10:43.504Z,22.11
2023-05-11T07:13:09.887Z,21.80
2023-05-11T07:15:36.230Z,21.66
2023-05-11T07:18:02.757Z,21.65
2023-05-11T07:20:29.114Z,21.57
2023-05-11T07:22:59.187Z,21.74
2023-05-11T07:25:25.524Z,21.80
2023-05-11T07:27:51.893Z,21.88
2023-05-11T07:30:18.884Z,21.84
2023-05-11T07:32:45.405Z,21.68
2023-05-11T07:35:11.749Z,21.62
2023-05-11T07:37:38.077Z,21.56
2023-05-11T07:40:04.652Z,21.53
2023-05-11T07:42:31.013Z,21.52
2023-05-11T07:44:57.335Z,21.51
2023-05-11T07:47:24.864Z,21.49
2023-05-11T07:49:51.238Z,21.47
2023-05-11T07:52:17.594Z,21.52
2023-05-11T07:54:43.964Z,21.54
2023-05-11T07:57:11.446Z,21.75
2023-05-11T07:59:38.036Z,21.77
2023-05-11T08:02:05.697Z,21.78
2023-05-11T08:04:32.629Z,21.81
2023-05-11T08:06:58.982Z,21.84
2023-05-11T08:09:25.366Z,21.87
2023-05-11T08:11:53.143Z,21.86
2023-05-11T08:14:21.076Z,21.71
2023-05-11T08:16:48.396Z,21.62
2023-05-11T08:19:14.899Z,21.73
2023-05-11T08:21:41.792Z,21.66
2023-05-11T08:24:08.142Z,21.70
2023-05-11T08:26:34.584Z,21.71
2023-05-11T08:29:00.923Z,21.75
2023-05-11T08:31:27.292Z,21.78
2023-05-11T08:33:53.804Z,21.78
2023-05-11T08:36:20.414Z,21.79
2023-05-11T08:38:46.737Z,21.83
2023-05-11T08:41:13.080Z,22.11
2023-05-11T08:43:39.716Z,22.25
2023-05-11T08:46:09.605Z,22.13
2023-05-11T08:48:36.244Z,22.10
2023-05-11T08:51:04.256Z,22.07
2023-05-11T08:53:30.717Z,22.00
2023-05-11T08:55:57.918Z,22.00
2023-05-11T08:58:24.337Z,21.89
2023-05-11T09:00:50.744Z,22.02
2023-05-11T09:03:17.505Z,21.91
2023-05-11T09:05:44.539Z,21.73
2023-05-11T09:08:11.186Z,21.73
2023-05-11T09:10:37.934Z,21.65
2023-05-11T09:13:04.722Z,21.64
2023-05-11T09:15:36.991Z,21.64
2023-05-11T09:18:04.737Z,21.62
2023-05-11T09:20:34.229Z,21.61
2023-05-11T09:23:00.559Z,21.61
2023-05-11T09:25:27.206Z,21.60
2023-05-11T09:27:53.549Z,21.61
2023-05-11T09:30:23.683Z,21.60
2023-05-11T09:32:54.382Z,21.62
2023-05-11T09:35:21.647Z,21.62
2023-05-11T09:37:57.567Z,21.59
2023-05-11T09:40:27.277Z,21.61
2023-05-11T09:42:54.238Z,21.60
2023-05-11T09:45:39.356Z,21.60
2023-05-11T09:48:23.990Z,21.60
2023-05-11T09:50:51.129Z,21.60
2023-05-11T09:53:17.516Z,21.59
2023-05-11T09:55:53.279Z,21.60
2023-05-11T09:58:19.672Z,21.59
2023-05-11T10:00:52.329Z,21.59
2023-05-11T10:03:18.891Z,21.59
2023-05-11T10:06:00.568Z,21.58
2023-05-11T10:08:30.430Z,21.58
2023-05-11T10:10:56.813Z,21.59
2023-05-11T10:13:23.631Z,21.58
2023-05-11T10:15:51.437Z,21.58
2023-05-11T10:18:20.124Z,21.60
2023-05-11T10:20:46.837Z,21.61
2023-05-11T10:23:13.927Z,21.61
2023-05-11T10:25:40.256Z,21.62
2023-05-11T10:28:06.596Z,21.62
2023-05-11T10:30:33.243Z,21.59
2023-05-11T10:33:00.718Z,21.57
2023-05-11T10:35:27.450Z,21.60
2023-05-11T10:37:53.820Z,21.96
2023-05-11T10:40:20.401Z,22.21
2023-05-11T10:43:05.441Z,22.40
2023-05-11T10:45:32.126Z,22.41
2023-05-11T10:48:10.041Z,22.51
2023-05-11T10:50:55.022Z,22.36
2023-05-11T10:53:24.014Z,22.15
2023-05-11T10:56:13.793Z,22.28
2023-05-11T10:58:43.761Z,21.88
2023-05-11T11:01:18.990Z,21.88
2023-05-11T11:04:02.789Z,22.05
2023-05-11T11:06:29.713Z,21.93
2023-05-11T11:08:57.834Z,21.75
2023-05-11T11:11:40.164Z,21.88
2023-05-11T11:14:07.004Z,21.74
2023-05-11T11:16:33.549Z,21.96
2023-05-11T11:19:18.770Z,22.10
2023-05-11T11:21:45.513Z,22.23
2023-05-11T11:24:31.811Z,22.12
2023-05-11T11:26:58.227Z,21.78
2023-05-11T11:29:24.688Z,22.11
2023-05-11T11:31:51.058Z,22.26
2023-05-11T11:34:27.153Z,22.44
2023-05-11T11:36:56.217Z,22.32
2023-05-11T11:39:22.535Z,22.34
2023-05-11T11:42:01.376Z,22.48
2023-05-11T11:44:27.710Z,22.53
2023-05-11T11:47:12.944Z,22.51
2023-05-11T11:49:39.694Z,22.43
2023-05-11T11:52:08.934Z,22.32
2023-05-11T11:54:39.593Z,22.34
2023-05-11T11:57:11.885Z,22.24
2023-05-11T11:59:45.511Z,22.56
2023-05-11T12:02:11.856Z,22.64
2023-05-11T12:04:39.496Z,22.71
2023-05-11T12:07:07.786Z,22.44
2023-05-11T12:09:34.226Z,22.60
2023-05-11T12:12:02.286Z,22.56
2023-05-11T12:14:28.651Z,22.53
2023-05-11T12:17:01.400Z,22.54
2023-05-11T12:19:28.266Z,22.37
2023-05-11T12:21:54.622Z,22.36
2023-05-11T12:24:20.931Z,22.47
2023-05-11T12:26:47.251Z,22.63
2023-05-11T12:29:14.168Z,22.66
2023-05-11T12:31:41.148Z,22.72
2023-05-11T12:34:07.562Z,22.83
2023-05-11T12:36:34.305Z,22.78
2023-05-11T12:39:00.726Z,22.42
2023-05-11T12:41:27.407Z,22.33
2023-05-11T12:43:53.922Z,22.36
2023-05-11T12:46:20.552Z,22.50
2023-05-11T12:48:47.000Z,22.52
2023-05-11T12:51:13.359Z,22.51
2023-05-11T12:53:40.066Z,22.59
2023-05-11T12:56:06.447Z,22.74
2023-05-11T12:58:36.096Z,22.75
2023-05-11T13:01:02.443Z,22.64
2023-05-11T13:03:30.601Z,22.54
2023-05-11T13:06:07.068Z,22.78
2023-05-11T13:08:33.764Z,23.05
2023-05-11T13:11:38.933Z,22.98
2023-05-11T13:14:14.820Z,22.81
2023-05-11T13:16:41.234Z,22.62
2023-05-11T13:19:08.454Z,22.50
2023-05-11T13:21:34.899Z,22.42
2023-05-11T13:24:03.645Z,22.39
2023-05-11T13:26:30.301Z,22.39
2023-05-11T13:29:09.461Z,22.36
2023-05-11T13:32:03.345Z,22.35
2023-05-11T13:34:29.750Z,22.32
2023-05-11T13:36:56.443Z,22.33
2023-05-11T13:39:22.851Z,22.35
2023-05-11T13:41:49.181Z,22.35
2023-05-11T13:44:15.672Z,22.36
2023-05-11T13:46:42.032Z,22.36
2023-05-11T13:49:08.633Z,22.35
2023-05-11T13:51:35.007Z,22.33
2023-05-11T13:54:02.363Z,22.34
2023-05-11T13:56:28.695Z,22.35
2023-05-11T13:58:55.844Z,22.35
2023-05-11T14:01:23.031Z,22.35
2023-05-11T14:03:52.702Z,22.34
2023-05-11T14:06:20.786Z,22.34
2023-05-11T14:08:47.135Z,22.30
2023-05-11T14:11:13.477Z,22.33
2023-05-11T14:13:39.811Z,22.50
2023-05-11T14:16:06.258Z,22.54
2023-05-11T14:18:32.802Z,22.50
2023-05-11T14:20:59.243Z,22.47
2023-05-11T14:23:25.816Z,22.49
2023-05-11T14:25:52.174Z,22.54
2023-05-11T14:28:18.518Z,22.99
2023-05-11T14:30:44.952Z,23.00
2023-05-11T14:33:11.395Z,22.81
2023-05-11T14:35:39.791Z,22.75
2023-05-11T14:38:06.439Z,22.72
2023-05-11T14:40:33.476Z,22.69
2023-05-11T14:42:59.817Z,22.68
2023-05-11T14:45:26.206Z,22.66
2023-05-11T14:47:52.580Z,22.64
2023-05-11T14:50:18.966Z,22.73
2023-05-11T14:52:45.323Z,22.79
2023-05-11T14:55:11.684Z,23.00
2023-05-11T14:57:38.068Z,23.16
2023-05-11T15:00:04.544Z,23.33
2023-05-11T15:02:30.980Z,23.39
2023-05-11T15:04:57.352Z,23.35
2023-05-11T15:07:23.726Z,23.37
2023-05-11T15:09:50.778Z,23.30
2023-05-11T15:12:17.131Z,22.92
2023-05-11T15:14:43.469Z,23.06
2023-05-11T15:17:09.808Z,23.18
2023-05-11T15:19:36.176Z,23.20
2023-05-11T15:22:02.581Z,23.30
2023-05-11T15:24:28.927Z,23.37
2023-05-11T15:26:55.294Z,23.39
2023-05-11T15:29:22.284Z,23.45
2023-05-11T15:31:48.742Z,23.47
2023-05-11T15:34:15.175Z,23.40
2023-05-11T15:36:41.542Z,23.47
2023-05-11T15:39:08.376Z,23.47
2023-05-11T15:41:34.741Z,23.49
2023-05-11T15:44:01.087Z,23.50
2023-05-11T15:46:27.521Z,23.51
2023-05-11T15:48:54.178Z,23.50
2023-05-11T15:51:20.996Z,23.40
2023-05-11T15:53:47.353Z,23.38
2023-05-11T15:56:13.685Z,23.20
2023-05-11T15:58:40.263Z,23.11
2023-05-11T16:01:06.752Z,23.10
2023-05-11T16:03:33.282Z,23.09
2023-05-11T16:05:59.769Z,23.15
2023-05-11T16:08:26.124Z,23.44
2023-05-11T16:10:52.569Z,23.51
2023-05-11T16:13:18.965Z,23.51
2023-05-11T16:15:45.421Z,23.44
2023-05-11T16:18:11.882Z,23.43
2023-05-11T16:20:38.362Z,23.44
2023-05-11T16:23:04.777Z,23.32
2023-05-11T16:25:31.137Z,23.18
2023-05-11T16:27:57.504Z,23.11
2023-05-11T16:30:25.398Z,23.13
2023-05-11T16:32:52.101Z,23.12
2023-05-11T16:35:18.649Z,23.13
2023-05-11T16:37:45.040Z,23.27
2023-05-11T16:40:11.572Z,23.47
2023-05-11T16:42:38.208Z,23.52
2023-05-11T16:45:04.822Z,23.46
2023-05-11T16:47:31.436Z,23.48
2023-05-11T16:49:57.863Z,23.48
2023-05-11T16:52:24.693Z,23.48
2023-05-11T16:54:51.092Z,23.48
2023-05-11T16:57:17.418Z,23.55
2023-05-11T16:59:43.755Z,23.55
2023-05-11T17:02:10.285Z,23.52
2023-05-11T17:04:36.795Z,23.46
2023-05-11T17:07:03.417Z,23.49
2023-05-11T17:09:30.008Z,23.19
2023-05-11T17:11:56.335Z,23.20
2023-05-11T17:14:22.824Z,23.26
2023-05-11T17:16:49.305Z,23.19
2023-05-11T17:19:16.396Z,23.06
2023-05-11T17:21:42.894Z,23.08
2023-05-11T17:24:09.332Z,22.95
2023-05-11T17:26:47.296Z,22.98
2023-05-11T17:29:15.385Z,22.93
2023-05-11T17:31:41.969Z,22.90
2023-05-11T17:34:09.063Z,22.78
2023-05-11T17:36:35.915Z,22.80
2023-05-11T17:39:02.352Z,22.69
2023-05-11T17:41:28.711Z,22.68
2023-05-11T17:43:55.113Z,22.69
2023-05-11T17:46:21.530Z,22.61
2023-05-11T17:48:47.917Z,22.61
2023-05-11T17:51:14.279Z,22.50
2023-05-11T17:53:40.602Z,22.55
2023-05-11T17:56:09.894Z,22.52
2023-05-11T17:58:36.275Z,22.48
2023-05-11T18:01:09.249Z,22.48
2023-05-11T18:03:35.839Z,22.47
2023-05-11T18:06:02.471Z,22.41
2023-05-11T18:08:28.800Z,22.37
2023-05-11T18:10:55.598Z,22.32
2023-05-11T18:13:22.664Z,22.32
2023-05-11T18:15:49.118Z,22.38
2023-05-11T18:18:15.564Z,22.35
2023-05-11T18:20:45.296Z,22.34
2023-05-11T18:23:12.177Z,22.39
2023-05-11T18:25:38.509Z,22.30
2023-05-11T18:28:04.847Z,22.21
2023-05-11T18:30:32.365Z,22.21
2023-05-11T18:32:58.725Z,22.17
2023-05-11T18:35:25.070Z,22.32
2023-05-11T18:37:51.421Z,22.37
2023-05-11T18:40:17.942Z,22.43
2023-05-11T18:42:44.708Z,22.46
2023-05-11T18:45:11.055Z,22.46
2023-05-11T18:47:37.446Z,22.38
2023-05-11T18:50:04.149Z,22.44
2023-05-11T18:52:30.537Z,22.32
2023-05-11T18:54:56.875Z,22.23
2023-05-11T18:57:23.225Z,22.37
2023-05-11T18:59:50.549Z,22.40
2023-05-11T19:02:16.930Z,22.42
2023-05-11T19:04:43.345Z,22.43
2023-05-11T19:07:09.680Z,22.42
2023-05-11T19:09:36.016Z,22.43
2023-05-11T19:12:03.933Z,22.42
2023-05-11T19:14:30.380Z,22.43
2023-05-11T19:16:56.813Z,22.45
2023-05-11T19:19:23.248Z,22.44
2023-05-11T19:21:50.569Z,22.42
2023-05-11T19:24:16.926Z,22.43
2023-05-11T19:26:47.380Z,22.42
2023-05-11T19:29:22.588Z,22.39
2023-05-11T19:31:51.410Z,22.40
2023-05-11T19:34:17.769Z,22.39
2023-05-11T19:36:44.097Z,22.39
2023-05-11T19:39:10.489Z,22.40
2023-05-11T19:41:36.866Z,22.39
2023-05-11T19:44:03.193Z,22.37
2023-05-11T19:46:29.580Z,22.38
2023-05-11T19:48:56.009Z,22.37
2023-05-11T19:51:22.336Z,22.37
2023-05-11T19:53:48.713Z,22.36
2023-05-11T19:56:15.041Z,22.36
2023-05-11T19:58:41.730Z,22.37
2023-05-11T20:01:08.109Z,22.36
2023-05-11T20:03:34.653Z,22.35
2023-05-11T20:06:01.065Z,22.35
2023-05-11T20:08:27.403Z,22.36
2023-05-11T20:10:53.714Z,22.35
2023-05-11T20:13:20.029Z,22.34
2023-05-11T20:15:46.386Z,22.34
2023-05-11T20:18:12.753Z,22.33
2023-05-11T20:20:39.133Z,22.32
2023-05-11T20:23:06.371Z,22.25
2023-05-11T20:25:32.727Z,22.31
2023-05-11T20:27:59.059Z,22.35
2023-05-11T20:30:25.401Z,22.35
2023-05-11T20:35:22.252Z,22.34
2023-05-11T20:37:48.625Z,22.33
2023-05-11T20:40:15.441Z,22.32
2023-05-11T20:42:41.794Z,22.32
2023-05-11T20:45:08.373Z,22.31
2023-05-11T20:47:34.776Z,22.31
2023-05-11T20:50:01.249Z,22.30
2023-05-11T20:52:27.567Z,22.29
2023-05-11T20:54:54.081Z,22.28
2023-05-11T20:57:20.798Z,22.28
2023-05-11T21:02:16.445Z,22.27
2023-05-11T21:04:42.809Z,22.25
2023-05-11T21:07:09.136Z,22.25
2023-05-11T21:09:35.666Z,22.25
2023-05-11T21:12:02.000Z,22.24
2023-05-11T21:14:28.347Z,22.22
2023-05-11T21:16:54.709Z,22.23
2023-05-11T21:19:21.123Z,22.25
2023-05-11T21:21:49.478Z,22.23
2023-05-11T21:24:16.085Z,22.21
2023-05-11T21:26:42.438Z,22.21
2023-05-11T21:29:08.823Z,22.22
2023-05-11T21:31:35.199Z,22.21
2023-05-11T21:34:01.664Z,22.20
2023-05-11T21:36:28.287Z,22.20
2023-05-11T21:38:54.630Z,22.18
2023-05-11T21:41:20.985Z,22.18
2023-05-11T21:43:47.305Z,22.19
2023-05-11T21:46:13.654Z,22.17
2023-05-11T21:48:40.108Z,22.17
2023-05-11T21:51:06.639Z,22.16
2023-05-11T21:53:32.985Z,22.17
2023-05-11T21:55:59.331Z,22.16
2023-05-11T21:58:26.290Z,22.16
2023-05-11T22:00:52.630Z,22.15
2023-05-11T22:03:19.357Z,22.14
2023-05-11T22:05:45.914Z,22.14
2023-05-11T22:08:15.303Z,22.15
2023-05-11T22:10:42.881Z,22.13
2023-05-11T22:13:09.259Z,22.13
2023-05-11T22:15:35.584Z,22.13
2023-05-11T22:18:01.962Z,22.14
2023-05-11T22:20:28.543Z,22.12
2023-05-11T22:22:54.886Z,22.13
2023-05-11T22:25:21.223Z,22.11
2023-05-11T22:27:47.864Z,22.11
2023-05-11T22:30:14.214Z,22.12
2023-05-11T22:32:40.586Z,22.10
2023-05-11T22:35:07.094Z,22.11
2023-05-11T22:37:33.586Z,22.10
2023-05-11T22:39:59.889Z,22.10
2023-05-11T22:42:26.216Z,22.09
2023-05-11T22:44:52.525Z,22.09
2023-05-11T22:47:18.893Z,22.08
2023-05-11T22:49:45.256Z,22.09
2023-05-11T22:52:11.599Z,22.09
2023-05-11T22:54:38.590Z,22.06
2023-05-11T22:57:04.948Z,22.07
2023-05-11T22:59:34.313Z,22.09
2023-05-11T23:02:01.746Z,22.07
2023-05-11T23:04:28.217Z,22.07
2023-05-11T23:06:54.548Z,22.07
2023-05-11T23:09:21.133Z,22.06
2023-05-11T23:11:48.730Z,22.06
2023-05-11T23:14:15.079Z,22.06
2023-05-11T23:16:42.206Z,22.05
2023-05-11T23:19:08.545Z,22.05
2023-05-11T23:21:34.881Z,22.05
2023-05-11T23:24:01.217Z,22.04
2023-05-11T23:26:27.552Z,22.03
2023-05-11T23:28:53.946Z,22.04
2023-05-11T23:31:20.353Z,22.03
2023-05-11T23:33:46.718Z,22.03
2023-05-11T23:36:13.026Z,22.03
2023-05-11T23:38:39.338Z,22.02
2023-05-11T23:41:06.229Z,22.02
2023-05-11T23:43:33.281Z,22.01
2023-05-11T23:46:01.039Z,21.99
2023-05-11T23:48:27.368Z,21.98
2023-05-11T23:50:53.692Z,21.98
2023-05-11T23:53:19.999Z,21.98
2023-05-11T23:55:46.804Z,21.97
2023-05-11T23:58:13.134Z,21.98
